• Join FlightAware (Why Join?)
  • Login
  • US Flag 
05:56AM EDT


 

Airport Tracker/Info


-or-


 

Live Flight TrackerFlight Track Log ✈ AWE3418 ✈ 23-Apr-2013 ✈ KPHL - KMHT

Flight Track Log - Related Links

Times and Time Zones

All times are in EDT time to prevent confusion due to time zone crossing. See the AWE3418 flight status page for this flight to view local times or setup timezone preferences in your user account.

Time Position Orientation Groundspeed Altitude Reporting Facility
EDT Latitude Longitude Course Direction KTS MPH feet Rate Location/Type
07:35PM 39.8736 -75.2081 North 148 170 1,400  Level FAA TRACON SMA TRACON (SMA)
07:35PM 39.8700 -75.1897 104° East 171 197 2,000 2,220 Climbing FAA TRACON SMA TRACON (SMA)
07:35PM 39.8667 -75.1697 102° East 188 216 2,900 2,520 Climbing FAA TRACON SMA TRACON (SMA)
07:36PM 39.8619 -75.1419 102° East 216 249 3,700 2,220 Climbing FAA TRACON SMA TRACON (SMA)
07:36PM 39.8578 -75.1144 101° East 251 289 4,400 2,520 Climbing FAA TRACON SMA TRACON (SMA)
07:36PM 39.8533 -75.0861 102° East 264 304 5,400 3,120 Climbing FAA TRACON SMA TRACON (SMA)
07:37PM 40.0761 -74.4239 37° Northeast  Level FlightAware Approximate
07:37PM 39.8481 -75.0533 102° East 269 310 6,500  Level FAA TRACON SMA TRACON (SMA)
07:37PM 39.8428 -75.0214 102° East 276 318 7,500 3,180 Climbing FAA TRACON SMA TRACON (SMA)
07:37PM 39.8369 -74.9867 102° East 286 329 8,600 3,600 Climbing FAA TRACON SMA TRACON (SMA)
07:38PM 40.2790 -74.2211 37° Northeast  Level FlightAware Approximate
07:38PM 39.8303 -74.9447 102° East 300 345 9,900  Level FAA TRACON SMA TRACON (SMA)
07:38PM 39.8250 -74.9111 102° East 305 351 10,700 2,100 Climbing FAA TRACON SMA TRACON (SMA)
07:38PM 39.8194 -74.8758 102° East 318 366 11,300 1,800 Climbing FAA TRACON SMA TRACON (SMA)
07:39PM 40.4773 -74.0122 57° Northeast  Level FlightAware Approximate
07:39PM 39.8119 -74.8281 102° East 346 398 11,900  Level FAA TRACON SMA TRACON (SMA)
07:39PM 39.8056 -74.7911 103° East 349 402 12,300 2,340 Climbing FAA TRACON SMA TRACON (SMA)
07:39PM 39.8058 -74.7508 89° East 347 399 13,500 3,600 Climbing FAA TRACON SMA TRACON (SMA)
07:40PM 40.6446 -73.7667 North  Level FlightAware Approximate
07:40PM 39.8214 -74.7083 65° Northeast 347 399 14,700  Level FAA TRACON SMA TRACON (SMA)
07:40PM 39.8425 -74.6831 43° Northeast 342 394 15,500 2,700 Climbing FAA TRACON SMA TRACON (SMA)
07:41PM 39.8922 -74.6317 38° Northeast 343 395 17,400 2,700 Climbing FAA TRACON SMA TRACON (SMA)
07:41PM 39.9161 -74.6058 40° Northeast 342 394 18,200 1,200 Climbing FAA TRACON SMA TRACON (SMA)
07:41PM 39.9161 -74.6058 293° West 342 394 18,200  Level FAA TRACON SMA TRACON (SMA)
07:42PM 39.9161 -74.6058 293° West 342 394 18,200 1,980 Level FAA TRACON SMA TRACON (SMA)
07:43PM 40.0775 -74.4358 39° Northeast 345 397 22,000 1,440 Climbing New York Center
07:44PM 40.1569 -74.3586 37° Northeast 350 403 22,000  Level New York Center
07:45PM 40.2344 -74.2783 38° Northeast 355 409 22,000 480 Level New York Center
07:46PM 40.3117 -74.2006 38° Northeast 360 414 23,000 480 Climbing New York Center
07:47PM 40.3953 -74.1203 36° Northeast 360 414 23,000  Level New York Center
07:48PM 40.4769 -74.0397 37° Northeast 365 420 23,000 -300 Level New York Center
07:49PM 40.5581 -73.9617 36° Northeast 365 420 22,400 -720 Descending New York Center
07:51PM 40.7228 -73.8119 35° Northeast 366 421 20,900 -480 Descending Boston Center
07:52PM 40.8211 -73.7839 12° North 353 406 21,000  Climbing Boston Center
07:53PM 40.9231 -73.7889 358° North 353 406 21,000  Level Boston Center
07:54PM 41.0231 -73.7936 358° North 353 406 21,000  Level Boston Center
07:55PM 41.1208 -73.7983 358° North 348 400 21,000  Level Boston Center
07:56PM 41.2189 -73.8033 358° North 348 400 21,000  Level Boston Center
07:57PM 41.3189 -73.8081 358° North 348 400 21,000  Level Boston Center
07:58PM 41.4189 -73.8103 359° North 348 400 21,000  Level Boston Center
07:59PM 41.5167 -73.8181 357° North 348 400 21,000  Level Boston Center
08:00PM 41.6147 -73.8172 360° North 348 400 21,000  Level Boston Center
08:01PM 41.7125 -73.8222 358° North 348 400 21,000  Level Boston Center
08:02PM 41.7917 -73.8211 North 348 400 21,000  Level Boston Center
08:03PM 41.9167 -73.8211 360° North 348 400 21,000  Level Boston Center
08:04PM 42.0128 -73.8203 360° North 348 400 21,000  Level Boston Center
08:05PM 42.1128 -73.8169 North 348 400 21,000  Level Boston Center
08:06PM 42.2108 -73.8164 360° North 348 400 21,000  Level Boston Center
08:07PM 42.3089 -73.8100 North 348 400 21,000  Level Boston Center
08:08PM 42.3806 -73.7217 42° Northeast 322 371 21,000  Level Boston Center
08:09PM 42.4217 -73.5875 67° East 342 394 21,000  Level Boston Center
08:10PM 42.4606 -73.4561 68° East 347 399 21,000 -420 Level Boston Center
08:11PM 42.4969 -73.3214 70° East 359 413 20,200 -1,020 Descending Boston Center
08:12PM 42.5311 -73.2008 69° East 375 432 19,000 -600 Descending Boston Center
08:13PM 42.5739 -73.0547 68° East 360 414 19,000  Level Boston Center
08:14PM 42.6139 -72.9367 65° Northeast 367 422 19,000 -540 Level Boston Center
08:15PM 42.6500 -72.8069 69° East 372 428 18,000 -1,200 Descending Boston Center
08:16PM 42.6856 -72.6772 70° East 372 428 16,700 -1,380 Descending Boston Center
08:17PM 42.7214 -72.5503 69° East 372 428 15,300 -1,380 Descending Boston Center
08:18PM 42.7567 -72.4289 68° East 362 417 14,000 -1,200 Descending Boston Center
08:19PM 42.7922 -72.3100 68° East 348 400 12,800 -1,320 Descending Boston Center
08:20PM 42.8044 -72.1600 84° East 331 381 11,200 -1,440 Descending Boston Center
08:21PM 42.8186 -72.0381 81° East 315 362 10,000 -1,560 Descending Boston Center
08:22PM 42.8350 -71.9475 76° East 274 315 8,100 -1,980 Descending Boston Center
08:23PM 42.8033 -71.8542 115° Southeast 239 275 6,100 -1,380 Descending Boston Center
08:24PM 42.7778 -71.7839 116° Southeast 239 275 5,400 -900 Descending Boston Center
08:25PM 42.7564 -71.7050 110° East 208 239 4,400 -1,020 Descending Boston Center
08:26PM 42.7603 -71.6567 84° East 139 160 3,400 -840 Descending Boston Center
08:27PM 42.7975 -71.6111 42° Northeast 150 173 2,800 -480 Descending Boston Center
08:28PM 42.8244 -71.5794 41° Northeast 145 167 2,500 -420 Descending Boston Center
08:30PM 42.8575 -71.5367 43° Northeast 145 167 2,000 -600 Descending Boston Center
08:31PM 42.8903 -71.4964 42° Northeast 140 161 1,300 -720 Descending Boston Center
08:32PM 42.9172 -71.4647 41° Northeast 130 150 600 -480 Descending Boston Center
08:33PM 42.9378 -71.4419 39° Northeast 130 150 400 4,200 Descending Boston Center
08:34PM 42.9689 -71.4072 39° Northeast 130 150 9,000 8,400 Climbing Boston Center